Date,TemperatureHighF,TemperatureAvgF,TemperatureLowF,DewpointHighF,DewpointAvgF,DewpointLowF,HumidityHigh,HumidityAvg,HumidityLow,PressureMaxIn,PressureMinIn,WindSpeedMaxMPH,WindSpeedAvgMPH,GustSpeedMaxMPH,PrecipitationSumIn
2013-1-1,58,52,46,45,38,20,81,62,25,30.14,30.00,20,3,22,0.00
2013-1-2,62,54,47,46,30,19,77,41,21,30.04,29.95,15,2,15,0.00
2013-1-3,68,55,46,46,31,20,68,42,20,30.06,29.95,14,2,14,0.00
2013-1-4,64,54,47,45,36,22,81,51,26,30.17,30.06,9,2,11,0.00
2013-1-5,58,52,44,50,38,25,91,62,40,30.20,30.09,12,2,12,0.00
2013-1-6,56,51,48,50,47,44,95,86,73,30.11,29.92,20,4,20,0.09
2013-1-7,61,54,47,48,41,34,88,62,41,30.02,29.89,18,3,18,0.00
2013-1-8,69,56,48,54,42,30,81,60,39,30.01,29.92,12,1,12,0.00
2013-1-9,63,54,50,55,46,35,92,74,48,30.03,29.91,7,1,9,0.00
2013-1-10,54,51,46,50,42,31,92,70,52,30.01,29.84,32,8,34,0.00
2013-1-11,53,48,45,37,29,23,60,47,36,30.10,29.97,18,4,18,0.00
2013-1-12,55,47,42,35,28,22,62,47,31,30.07,29.98,18,4,18,0.00
2013-1-13,54,48,40,37,30,23,68,50,35,30.07,29.96,12,3,14,0.00
2013-1-14,53,47,40,31,17,6,53,30,16,30.24,30.02,28,5,28,0.00
2013-1-15,56,48,40,43,27,14,82,47,23,30.36,30.24,12,3,13,0.00
2013-1-16,62,51,45,41,30,24,68,45,28,30.25,30.02,11,1,11,0.00
2013-1-17,73,64,57,36,24,18,33,22,14,30.07,29.95,26,4,29,0.00
2013-1-18,76,67,56,33,24,18,28,20,16,30.03,29.95,17,2,17,0.00
2013-1-19,74,65,59,36,23,16,36,21,13,30.07,29.97,11,1,15,0.00
2013-1-20,76,65,56,44,24,14,42,21,13,30.02,29.90,15,2,15,0.00
2013-1-21,74,66,57,40,21,11,40,19,9,29.99,29.88,22,4,24,0.00
2013-1-22,74,63,56,40,24,8,42,23,10,29.99,29.90,9,1,10,0.00
2013-1-23,76,64,55,52,35,16,83,38,16,30.02,29.90,15,3,15,0.07
2013-1-24,63,59,54,56,54,50,94,84,69,30.08,29.96,25,5,25,0.57
2013-1-25,63,60,57,60,57,55,97,89,75,30.01,29.84,20,4,22,0.31
2013-1-26,62,57,54,61,56,53,100,97,90,29.90,29.79,10,0,10,0.04
2013-1-27,57,54,51,54,48,30,98,82,42,29.94,29.86,20,4,20,0.03
2013-1-28,56,52,48,46,35,30,78,53,42,30.08,29.93,21,6,21,0.00
2013-1-29,57,52,47,46,40,30,82,64,44,30.13,30.06,17,3,17,0.00
2013-1-30,66,55,46,50,42,35,83,65,36,30.24,30.11,9,2,9,0.00
2013-1-31,66,57,48,53,45,38,85,64,41,30.14,30.01,7,1,9,0.00